sensor_id;sensor_type;location;lat;lon;timestamp;pressure;altitude;pressure_sealevel;temperature;humidity
75681;BME280;64294;49.176;16.626;2023-02-22T00:00:24;99301.75;;;7.19;88.64
75681;BME280;64294;49.176;16.626;2023-02-22T00:03:11;99295.88;;;7.23;88.21
75681;BME280;64294;49.176;16.626;2023-02-22T00:05:42;99298.69;;;7.23;88.64
75681;BME280;64294;49.176;16.626;2023-02-22T00:08:15;99297.91;;;7.22;88.56
75681;BME280;64294;49.176;16.626;2023-02-22T00:10:41;99297.41;;;7.24;88.86
75681;BME280;64294;49.176;16.626;2023-02-22T00:13:08;99298.16;;;7.24;88.90
75681;BME280;64294;49.176;16.626;2023-02-22T00:15:37;99297.66;;;7.26;88.88
75681;BME280;64294;49.176;16.626;2023-02-22T00:18:07;99294.41;;;7.16;89.37
75681;BME280;64294;49.176;16.626;2023-02-22T00:20:35;99305.84;;;7.13;89.48
75681;BME280;64294;49.176;16.626;2023-02-22T00:23:04;99302.56;;;7.09;89.63
75681;BME280;64294;49.176;16.626;2023-02-22T00:25:31;99306.09;;;7.15;89.01
75681;BME280;64294;49.176;16.626;2023-02-22T00:28:00;99305.84;;;7.13;89.29
75681;BME280;64294;49.176;16.626;2023-02-22T00:30:28;99296.72;;;7.12;89.75
75681;BME280;64294;49.176;16.626;2023-02-22T00:32:55;99303.28;;;7.15;89.13
75681;BME280;64294;49.176;16.626;2023-02-22T00:35:23;99297.94;;;7.17;89.38
75681;BME280;64294;49.176;16.626;2023-02-22T00:37:51;99298.94;;;7.19;89.15
75681;BME280;64294;49.176;16.626;2023-02-22T00:40:20;99298.16;;;7.24;89.04
75681;BME280;64294;49.176;16.626;2023-02-22T00:42:46;99299.44;;;7.23;89.08
75681;BME280;64294;49.176;16.626;2023-02-22T00:45:14;99298.69;;;7.23;88.73
75681;BME280;64294;49.176;16.626;2023-02-22T00:47:40;99303.00;;;7.24;89.01
75681;BME280;64294;49.176;16.626;2023-02-22T00:50:07;99300.97;;;7.24;89.20
75681;BME280;64294;49.176;16.626;2023-02-22T00:52:34;99299.72;;;7.25;88.85
75681;BME280;64294;49.176;16.626;2023-02-22T00:55:00;99299.44;;;7.29;88.92
75681;BME280;64294;49.176;16.626;2023-02-22T00:57:26;99307.31;;;7.31;88.80
75681;BME280;64294;49.176;16.626;2023-02-22T00:59:51;99307.03;;;7.34;88.67
75681;BME280;64294;49.176;16.626;2023-02-22T01:02:17;99303.72;;;7.36;88.72
75681;BME280;64294;49.176;16.626;2023-02-22T01:04:43;99305.00;;;7.35;89.09
75681;BME280;64294;49.176;16.626;2023-02-22T01:07:08;99312.84;;;7.36;88.92
75681;BME280;64294;49.176;16.626;2023-02-22T01:09:34;99302.94;;;7.35;89.05
75681;BME280;64294;49.176;16.626;2023-02-22T01:12:00;99303.19;;;7.37;88.86
75681;BME280;64294;49.176;16.626;2023-02-22T01:14:27;99305.00;;;7.35;89.10
75681;BME280;64294;49.176;16.626;2023-02-22T01:16:53;99301.44;;;7.34;89.44
75681;BME280;64294;49.176;16.626;2023-02-22T01:19:20;99302.72;;;7.33;89.34
75681;BME280;64294;49.176;16.626;2023-02-22T01:21:46;99303.44;;;7.39;89.15
75681;BME280;64294;49.176;16.626;2023-02-22T01:24:13;99299.63;;;7.37;89.08
75681;BME280;64294;49.176;16.626;2023-02-22T01:26:41;99293.28;;;7.36;88.95
75681;BME280;64294;49.176;16.626;2023-02-22T01:29:11;99299.38;;;7.40;88.98
75681;BME280;64294;49.176;16.626;2023-02-22T01:31:42;99285.66;;;7.37;89.34
75681;BME280;64294;49.176;16.626;2023-02-22T01:34:11;99290.50;;;7.36;89.08
75681;BME280;64294;49.176;16.626;2023-02-22T01:36:37;99291.78;;;7.35;89.21
75681;BME280;64294;49.176;16.626;2023-02-22T01:39:04;99292.81;;;7.32;89.36
75681;BME280;64294;49.176;16.626;2023-02-22T01:41:31;99287.22;;;7.32;89.56
75681;BME280;64294;49.176;16.626;2023-02-22T01:43:56;99294.34;;;7.27;89.89
75681;BME280;64294;49.176;16.626;2023-02-22T01:46:24;99297.66;;;7.26;90.11
75681;BME280;64294;49.176;16.626;2023-02-22T01:48:54;99287.25;;;7.21;90.11
75681;BME280;64294;49.176;16.626;2023-02-22T01:51:23;99290.56;;;7.19;90.22
75681;BME280;64294;49.176;16.626;2023-02-22T01:54:00;99289.00;;;7.24;89.96
75681;BME280;64294;49.176;16.626;2023-02-22T01:56:30;99291.09;;;7.18;90.57
75681;BME280;64294;49.176;16.626;2023-02-22T01:59:02;99282.94;;;7.20;90.50
75681;BME280;64294;49.176;16.626;2023-02-22T02:01:31;99284.72;;;7.17;90.38
75681;BME280;64294;49.176;16.626;2023-02-22T02:03:59;99279.91;;;7.18;90.54
75681;BME280;64294;49.176;16.626;2023-02-22T02:06:31;99278.38;;;7.17;90.67
75681;BME280;64294;49.176;16.626;2023-02-22T02:09:20;99272.03;;;7.16;90.47
75681;BME280;64294;49.176;16.626;2023-02-22T02:11:51;99269.47;;;7.18;90.17
75681;BME280;64294;49.176;16.626;2023-02-22T02:14:17;99269.75;;;7.15;90.75
75681;BME280;64294;49.176;16.626;2023-02-22T02:16:45;99269.53;;;7.13;90.57
75681;BME280;64294;49.176;16.626;2023-02-22T02:19:34;99268.00;;;7.12;90.66
75681;BME280;64294;49.176;16.626;2023-02-22T02:25:09;99271.06;;;7.08;90.54
75681;BME280;64294;49.176;16.626;2023-02-22T02:35:55;99267.00;;;7.09;90.67
75681;BME280;64294;49.176;16.626;2023-02-22T02:38:40;99262.41;;;7.06;90.93
75681;BME280;64294;49.176;16.626;2023-02-22T02:41:14;99268.00;;;7.06;90.78
75681;BME280;64294;49.176;16.626;2023-02-22T02:43:46;99260.13;;;7.05;90.89
75681;BME280;64294;49.176;16.626;2023-02-22T02:46:34;99263.19;;;7.07;90.91
75681;BME280;64294;49.176;16.626;2023-02-22T02:49:07;99252.78;;;7.07;90.91
75681;BME280;64294;49.176;16.626;2023-02-22T02:51:41;99254.03;;;7.06;91.17
75681;BME280;64294;49.176;16.626;2023-02-22T02:54:09;99245.66;;;7.06;90.96
75681;BME280;64294;49.176;16.626;2023-02-22T02:56:35;99250.00;;;7.07;91.01
75681;BME280;64294;49.176;16.626;2023-02-22T02:59:01;99254.56;;;6.99;91.75
75681;BME280;64294;49.176;16.626;2023-02-22T03:06:47;99258.75;;;6.70;92.53
75681;BME280;64294;49.176;16.626;2023-02-22T03:09:40;99252.94;;;6.57;92.76
75681;BME280;64294;49.176;16.626;2023-02-22T03:12:54;99256.53;;;6.52;93.61
75681;BME280;64294;49.176;16.626;2023-02-22T03:15:35;99252.69;;;6.49;93.58
75681;BME280;64294;49.176;16.626;2023-02-22T03:18:08;99264.16;;;6.34;94.77
75681;BME280;64294;49.176;16.626;2023-02-22T03:20:45;99261.13;;;6.32;94.67
75681;BME280;64294;49.176;16.626;2023-02-22T03:23:22;99264.66;;;6.27;94.60
75681;BME280;64294;49.176;16.626;2023-02-22T03:25:54;99262.13;;;6.24;94.73
75681;BME280;64294;49.176;16.626;2023-02-22T03:28:24;99270.50;;;6.29;94.85
75681;BME280;64294;49.176;16.626;2023-02-22T03:30:56;99261.88;;;6.27;95.30
75681;BME280;64294;49.176;16.626;2023-02-22T03:33:27;99266.47;;;6.19;95.52
75681;BME280;64294;49.176;16.626;2023-02-22T03:36:02;99268.47;;;6.13;96.73
75681;BME280;64294;49.176;16.626;2023-02-22T03:38:31;99267.97;;;6.09;97.31
75681;BME280;64294;49.176;16.626;2023-02-22T03:41:01;99273.06;;;6.16;97.44
75681;BME280;64294;49.176;16.626;2023-02-22T03:43:31;99268.25;;;6.17;97.06
75681;BME280;64294;49.176;16.626;2023-02-22T03:46:00;99269.75;;;6.23;96.39
75681;BME280;64294;49.176;16.626;2023-02-22T03:48:48;99272.78;;;6.25;95.44
75681;BME280;64294;49.176;16.626;2023-02-22T03:51:15;99269.75;;;6.34;94.99
75681;BME280;64294;49.176;16.626;2023-02-22T03:53:42;99273.28;;;6.35;95.50
75681;BME280;64294;49.176;16.626;2023-02-22T03:56:17;99265.41;;;6.39;95.45
75681;BME280;64294;49.176;16.626;2023-02-22T03:58:46;99266.44;;;6.42;95.23
75681;BME280;64294;49.176;16.626;2023-02-22T04:01:12;99274.53;;;6.45;95.06
75681;BME280;64294;49.176;16.626;2023-02-22T04:03:38;99279.34;;;6.45;94.94
75681;BME280;64294;49.176;16.626;2023-02-22T04:06:04;99272.75;;;6.48;94.50
75681;BME280;64294;49.176;16.626;2023-02-22T04:08:30;99279.13;;;6.43;95.02
75681;BME280;64294;49.176;16.626;2023-02-22T04:10:55;99271.50;;;6.43;94.96
75681;BME280;64294;49.176;16.626;2023-02-22T04:13:21;99264.63;;;6.44;95.38
75681;BME280;64294;49.176;16.626;2023-02-22T04:15:46;99259.31;;;6.46;95.01
75681;BME280;64294;49.176;16.626;2023-02-22T04:18:11;99264.13;;;6.57;94.35
75681;BME280;64294;49.176;16.626;2023-02-22T04:20:38;99266.91;;;6.46;94.82
75681;BME280;64294;49.176;16.626;2023-02-22T04:23:03;99275.31;;;6.40;94.63
75681;BME280;64294;49.176;16.626;2023-02-22T04:25:29;99277.59;;;6.30;95.33
75681;BME280;64294;49.176;16.626;2023-02-22T04:27:54;99282.94;;;6.23;96.24
75681;BME280;64294;49.176;16.626;2023-02-22T04:30:20;99280.66;;;6.21;96.67
75681;BME280;64294;49.176;16.626;2023-02-22T04:32:45;99271.03;;;6.17;96.63
75681;BME280;64294;49.176;16.626;2023-02-22T04:35:11;99277.59;;;6.30;96.63
75681;BME280;64294;49.176;16.626;2023-02-22T04:37:36;99274.31;;;6.21;96.54
75681;BME280;64294;49.176;16.626;2023-02-22T04:40:03;99271.53;;;6.15;96.61
75681;BME280;64294;49.176;16.626;2023-02-22T04:42:33;99277.34;;;6.12;96.90
75681;BME280;64294;49.176;16.626;2023-02-22T04:44:59;99272.03;;;6.08;97.59
75681;BME280;64294;49.176;16.626;2023-02-22T04:47:24;99268.72;;;6.10;97.28
75681;BME280;64294;49.176;16.626;2023-02-22T04:49:50;99266.94;;;6.12;97.33
75681;BME280;64294;49.176;16.626;2023-02-22T04:52:15;99275.06;;;6.10;96.56
75681;BME280;64294;49.176;16.626;2023-02-22T04:54:41;99272.81;;;6.03;96.96
75681;BME280;64294;49.176;16.626;2023-02-22T04:57:06;99264.16;;;6.06;97.03
75681;BME280;64294;49.176;16.626;2023-02-22T04:59:31;99272.56;;;6.01;97.12
75681;BME280;64294;49.176;16.626;2023-02-22T05:01:57;99270.00;;;5.92;97.24
75681;BME280;64294;49.176;16.626;2023-02-22T05:04:23;99280.41;;;5.97;97.50
75681;BME280;64294;49.176;16.626;2023-02-22T05:06:48;99277.09;;;5.93;97.02
75681;BME280;64294;49.176;16.626;2023-02-22T05:09:14;99271.25;;;5.91;97.37
75681;BME280;64294;49.176;16.626;2023-02-22T05:11:39;99280.88;;;5.78;98.03
75681;BME280;64294;49.176;16.626;2023-02-22T05:14:05;99281.88;;;5.70;98.92
75681;BME280;64294;49.176;16.626;2023-02-22T05:16:30;99287.69;;;5.66;99.25
75681;BME280;64294;49.176;16.626;2023-02-22T05:18:56;99279.34;;;5.66;99.44
75681;BME280;64294;49.176;16.626;2023-02-22T05:21:21;99280.59;;;5.71;99.09
75681;BME280;64294;49.176;16.626;2023-02-22T05:23:47;99280.09;;;5.72;99.36
75681;BME280;64294;49.176;16.626;2023-02-22T05:26:13;99279.84;;;5.70;99.60
75681;BME280;64294;49.176;16.626;2023-02-22T05:28:38;99279.63;;;5.80;99.75
75681;BME280;64294;49.176;16.626;2023-02-22T05:31:04;99286.72;;;5.81;99.03
75681;BME280;64294;49.176;16.626;2023-02-22T05:33:29;99282.66;;;5.82;99.47
75681;BME280;64294;49.176;16.626;2023-02-22T05:35:55;99282.66;;;5.82;99.31
75681;BME280;64294;49.176;16.626;2023-02-22T05:38:20;99278.09;;;5.84;98.89
75681;BME280;64294;49.176;16.626;2023-02-22T05:40:47;99280.13;;;5.84;98.77
75681;BME280;64294;49.176;16.626;2023-02-22T05:43:12;99279.63;;;5.80;98.65
75681;BME280;64294;49.176;16.626;2023-02-22T05:45:40;99281.88;;;5.75;98.99
75681;BME280;64294;49.176;16.626;2023-02-22T05:48:05;99282.63;;;5.70;98.68
75681;BME280;64294;49.176;16.626;2023-02-22T05:50:31;99289.47;;;5.64;99.11
75681;BME280;64294;49.176;16.626;2023-02-22T05:52:57;99282.88;;;5.61;99.09
75681;BME280;64294;49.176;16.626;2023-02-22T05:55:23;99284.41;;;5.62;99.02
75681;BME280;64294;49.176;16.626;2023-02-22T05:57:49;99293.28;;;5.61;99.55
75681;BME280;64294;49.176;16.626;2023-02-22T06:00:20;99294.78;;;5.67;99.12
75681;BME280;64294;49.176;16.626;2023-02-22T06:02:59;99289.97;;;5.68;99.66
75681;BME280;64294;49.176;16.626;2023-02-22T06:05:26;99289.47;;;5.75;99.18
75681;BME280;64294;49.176;16.626;2023-02-22T06:07:52;99297.34;;;5.76;98.58
75681;BME280;64294;49.176;16.626;2023-02-22T06:10:18;99302.19;;;5.87;97.81
75681;BME280;64294;49.176;16.626;2023-02-22T06:12:44;99301.22;;;5.96;97.60
75681;BME280;64294;49.176;16.626;2023-02-22T06:15:10;99309.06;;;6.03;97.20
75681;BME280;64294;49.176;16.626;2023-02-22T06:17:35;99315.66;;;6.11;96.94
75681;BME280;64294;49.176;16.626;2023-02-22T06:20:01;99318.47;;;6.17;96.93
75681;BME280;64294;49.176;16.626;2023-02-22T06:22:27;99313.88;;;6.25;96.33
75681;BME280;64294;49.176;16.626;2023-02-22T06:24:52;99325.31;;;6.32;95.26
75681;BME280;64294;49.176;16.626;2023-02-22T06:27:18;99313.38;;;6.37;94.91
75681;BME280;64294;49.176;16.626;2023-02-22T06:29:45;99313.63;;;6.40;94.28
75681;BME280;64294;49.176;16.626;2023-02-22T06:32:11;99318.69;;;6.47;94.49
75681;BME280;64294;49.176;16.626;2023-02-22T06:34:36;99322.75;;;6.57;93.90
75681;BME280;64294;49.176;16.626;2023-02-22T06:37:02;99330.84;;;6.72;93.03
75681;BME280;64294;49.176;16.626;2023-02-22T06:39:27;99324.72;;;6.84;92.06
75681;BME280;64294;49.176;16.626;2023-02-22T06:41:53;99326.72;;;7.01;91.86
75681;BME280;64294;49.176;16.626;2023-02-22T06:44:20;99324.13;;;7.14;90.74
75681;BME280;64294;49.176;16.626;2023-02-22T06:46:47;99334.00;;;7.26;89.87
75681;BME280;64294;49.176;16.626;2023-02-22T06:49:15;99331.44;;;7.34;89.02
75681;BME280;64294;49.176;16.626;2023-02-22T06:51:41;99340.53;;;7.40;88.43
75681;BME280;64294;49.176;16.626;2023-02-22T06:54:07;99342.06;;;7.46;88.03
75681;BME280;64294;49.176;16.626;2023-02-22T06:56:32;99339.66;;;7.62;87.84
75681;BME280;64294;49.176;16.626;2023-02-22T06:58:57;99331.69;;;7.82;86.44
75681;BME280;64294;49.176;16.626;2023-02-22T07:01:23;99337.81;;;7.81;86.31
75681;BME280;64294;49.176;16.626;2023-02-22T07:03:48;99337.41;;;8.01;85.43
75681;BME280;64294;49.176;16.626;2023-02-22T07:06:14;99347.97;;;8.19;84.56
75681;BME280;64294;49.176;16.626;2023-02-22T07:08:39;99344.75;;;8.70;82.28
75681;BME280;64294;49.176;16.626;2023-02-22T07:11:05;99349.09;;;9.20;79.27
75681;BME280;64294;49.176;16.626;2023-02-22T07:13:30;99350.22;;;9.92;75.67
75681;BME280;64294;49.176;16.626;2023-02-22T07:15:56;99351.41;;;9.96;75.32
75681;BME280;64294;49.176;16.626;2023-02-22T07:18:21;99353.88;;;10.38;74.67
75681;BME280;64294;49.176;16.626;2023-02-22T07:20:48;99348.09;;;10.49;73.31
75681;BME280;64294;49.176;16.626;2023-02-22T07:23:14;99348.16;;;11.55;69.16
75681;BME280;64294;49.176;16.626;2023-02-22T07:25:40;99354.22;;;13.82;60.77
75681;BME280;64294;49.176;16.626;2023-02-22T07:28:05;99340.19;;;16.80;50.36
75681;BME280;64294;49.176;16.626;2023-02-22T07:30:32;99343.91;;;18.94;43.32
75681;BME280;64294;49.176;16.626;2023-02-22T07:33:03;99344.25;;;21.27;39.23
75681;BME280;64294;49.176;16.626;2023-02-22T07:35:30;99335.75;;;22.84;34.58
75681;BME280;64294;49.176;16.626;2023-02-22T07:37:56;99342.94;;;23.69;33.26
75681;BME280;64294;49.176;16.626;2023-02-22T07:40:23;99338.69;;;24.21;31.17
75681;BME280;64294;49.176;16.626;2023-02-22T07:45:31;99342.09;;;22.83;31.99
75681;BME280;64294;49.176;16.626;2023-02-22T07:47:58;99340.84;;;22.62;33.34
75681;BME280;64294;49.176;16.626;2023-02-22T07:50:26;99348.81;;;22.99;33.26
75681;BME280;64294;49.176;16.626;2023-02-22T07:52:54;99345.06;;;20.86;35.56
75681;BME280;64294;49.176;16.626;2023-02-22T07:55:23;99341.88;;;20.11;37.28
75681;BME280;64294;49.176;16.626;2023-02-22T07:57:50;99346.78;;;18.58;40.03
75681;BME280;64294;49.176;16.626;2023-02-22T08:00:22;99344.16;;;17.89;43.08
75681;BME280;64294;49.176;16.626;2023-02-22T08:02:48;99337.84;;;16.61;46.98
75681;BME280;64294;49.176;16.626;2023-02-22T08:05:14;99359.97;;;15.42;50.76
75681;BME280;64294;49.176;16.626;2023-02-22T08:07:39;99346.94;;;15.39;51.84
75681;BME280;64294;49.176;16.626;2023-02-22T08:10:06;99348.94;;;14.83;53.82
75681;BME280;64294;49.176;16.626;2023-02-22T08:12:36;99342.53;;;13.14;60.43
75681;BME280;64294;49.176;16.626;2023-02-22T08:15:04;99342.28;;;13.25;60.23
75681;BME280;64294;49.176;16.626;2023-02-22T08:17:29;99350.19;;;12.77;62.00
75681;BME280;64294;49.176;16.626;2023-02-22T08:19:54;99342.75;;;12.04;65.30
75681;BME280;64294;49.176;16.626;2023-02-22T08:22:20;99346.88;;;12.24;65.51
75681;BME280;64294;49.176;16.626;2023-02-22T08:24:45;99347.53;;;12.71;63.79
75681;BME280;64294;49.176;16.626;2023-02-22T08:27:11;99343.50;;;12.88;63.81
75681;BME280;64294;49.176;16.626;2023-02-22T08:29:36;99342.69;;;12.80;63.90
75681;BME280;64294;49.176;16.626;2023-02-22T08:32:02;99350.75;;;12.13;65.73
75681;BME280;64294;49.176;16.626;2023-02-22T08:34:27;99348.81;;;12.70;63.86
75681;BME280;64294;49.176;16.626;2023-02-22T08:36:53;99344.72;;;13.00;63.26
75681;BME280;64294;49.176;16.626;2023-02-22T08:39:19;99338.84;;;13.19;62.09
75681;BME280;64294;49.176;16.626;2023-02-22T08:41:45;99343.94;;;13.56;60.55
75681;BME280;64294;49.176;16.626;2023-02-22T08:44:10;99341.69;;;12.98;61.44
75681;BME280;64294;49.176;16.626;2023-02-22T08:46:36;99353.47;;;13.17;62.06
75681;BME280;64294;49.176;16.626;2023-02-22T08:49:01;99345.97;;;12.91;62.22
75681;BME280;64294;49.176;16.626;2023-02-22T08:51:27;99344.88;;;12.94;62.14
75681;BME280;64294;49.176;16.626;2023-02-22T08:53:53;99346.22;;;12.72;62.18
75681;BME280;64294;49.176;16.626;2023-02-22T08:56:19;99351.25;;;12.66;62.65
75681;BME280;64294;49.176;16.626;2023-02-22T08:58:44;99346.22;;;12.52;63.99
75681;BME280;64294;49.176;16.626;2023-02-22T09:01:10;99340.59;;;12.31;64.06
75681;BME280;64294;49.176;16.626;2023-02-22T09:03:35;99343.31;;;12.23;64.11
75681;BME280;64294;49.176;16.626;2023-02-22T09:06:01;99336.63;;;11.92;64.87
75681;BME280;64294;49.176;16.626;2023-02-22T09:08:27;99345.91;;;11.27;67.81
75681;BME280;64294;49.176;16.626;2023-02-22T09:10:53;99337.66;;;11.55;67.09
75681;BME280;64294;49.176;16.626;2023-02-22T09:13:18;99341.41;;;12.18;65.66
75681;BME280;64294;49.176;16.626;2023-02-22T09:15:43;99342.22;;;12.26;66.39
75681;BME280;64294;49.176;16.626;2023-02-22T09:18:11;99345.59;;;12.25;64.60
75681;BME280;64294;49.176;16.626;2023-02-22T09:20:39;99349.72;;;12.24;65.04
75681;BME280;64294;49.176;16.626;2023-02-22T09:23:06;99346.41;;;12.74;63.42
75681;BME280;64294;49.176;16.626;2023-02-22T09:25:33;99340.81;;;13.03;61.88
75681;BME280;64294;49.176;16.626;2023-02-22T09:28:00;99344.78;;;13.08;60.91
75681;BME280;64294;49.176;16.626;2023-02-22T09:30:31;99341.63;;;13.47;60.44
75681;BME280;64294;49.176;16.626;2023-02-22T09:32:59;99341.72;;;13.26;60.89
75681;BME280;64294;49.176;16.626;2023-02-22T09:35:25;99337.69;;;12.65;62.19
75681;BME280;64294;49.176;16.626;2023-02-22T09:37:56;99343.63;;;13.03;62.28
75681;BME280;64294;49.176;16.626;2023-02-22T09:40:22;99338.50;;;12.73;62.25
75681;BME280;64294;49.176;16.626;2023-02-22T09:46:09;99332.97;;;12.88;63.02
75681;BME280;64294;49.176;16.626;2023-02-22T09:51:28;99339.66;;;13.27;61.19
75681;BME280;64294;49.176;16.626;2023-02-22T09:53:57;99331.22;;;13.34;60.45
75681;BME280;64294;49.176;16.626;2023-02-22T09:56:25;99336.50;;;13.10;61.89
75681;BME280;64294;49.176;16.626;2023-02-22T09:58:55;99338.63;;;12.88;62.58
75681;BME280;64294;49.176;16.626;2023-02-22T10:04:05;99327.84;;;11.96;65.97
75681;BME280;64294;49.176;16.626;2023-02-22T10:06:33;99331.75;;;11.93;66.24
75681;BME280;64294;49.176;16.626;2023-02-22T10:09:01;99336.28;;;11.96;66.86
75681;BME280;64294;49.176;16.626;2023-02-22T10:22:56;99322.28;;;12.66;63.96
75681;BME280;64294;49.176;16.626;2023-02-22T10:25:26;99329.78;;;12.42;64.37
75681;BME280;64294;49.176;16.626;2023-02-22T10:28:09;99325.00;;;12.79;63.49
75681;BME280;64294;49.176;16.626;2023-02-22T10:30:42;99319.25;;;13.49;61.61
75681;BME280;64294;49.176;16.626;2023-02-22T10:33:22;99321.78;;;13.32;60.47
75681;BME280;64294;49.176;16.626;2023-02-22T10:35:52;99319.19;;;13.85;59.29
75681;BME280;64294;49.176;16.626;2023-02-22T10:38:20;99317.56;;;14.13;57.81
75681;BME280;64294;49.176;16.626;2023-02-22T10:41:01;99320.00;;;14.01;58.66
75681;BME280;64294;49.176;16.626;2023-02-22T10:43:27;99318.56;;;12.99;61.68
75681;BME280;64294;49.176;16.626;2023-02-22T10:45:56;99319.53;;;13.74;60.09
75681;BME280;64294;49.176;16.626;2023-02-22T10:48:26;99320.31;;;13.82;59.57
75681;BME280;64294;49.176;16.626;2023-02-22T10:50:58;99315.09;;;14.09;59.56
75681;BME280;64294;49.176;16.626;2023-02-22T10:53:26;99311.03;;;13.67;59.16
75681;BME280;64294;49.176;16.626;2023-02-22T10:56:20;99311.69;;;13.44;59.96
75681;BME280;64294;49.176;16.626;2023-02-22T11:04:13;99309.78;;;13.83;60.19
75681;BME280;64294;49.176;16.626;2023-02-22T11:06:41;99307.19;;;13.13;61.48
75681;BME280;64294;49.176;16.626;2023-02-22T11:09:17;99305.16;;;12.64;62.90
75681;BME280;64294;49.176;16.626;2023-02-22T11:11:47;99305.16;;;13.57;60.47
75681;BME280;64294;49.176;16.626;2023-02-22T11:14:27;99313.41;;;13.47;59.86
75681;BME280;64294;49.176;16.626;2023-02-22T11:16:54;99305.41;;;13.30;61.47
75681;BME280;64294;49.176;16.626;2023-02-22T11:19:26;99309.03;;;13.90;59.12
75681;BME280;64294;49.176;16.626;2023-02-22T11:21:55;99306.25;;;13.98;58.17
75681;BME280;64294;49.176;16.626;2023-02-22T11:24:22;99299.31;;;14.29;57.73
75681;BME280;64294;49.176;16.626;2023-02-22T11:26:54;99297.22;;;14.30;57.50
75681;BME280;64294;49.176;16.626;2023-02-22T11:29:34;99302.47;;;13.95;58.42
75681;BME280;64294;49.176;16.626;2023-02-22T11:32:12;99291.88;;;13.88;57.78
75681;BME280;64294;49.176;16.626;2023-02-22T11:34:40;99291.78;;;14.16;58.33
75681;BME280;64294;49.176;16.626;2023-02-22T11:40:05;99288.19;;;14.16;58.24
75681;BME280;64294;49.176;16.626;2023-02-22T11:42:31;99285.38;;;14.84;55.19
75681;BME280;64294;49.176;16.626;2023-02-22T11:45:14;99278.41;;;14.40;57.05
75681;BME280;64294;49.176;16.626;2023-02-22T11:47:58;99270.78;;;13.89;59.16
75681;BME280;64294;49.176;16.626;2023-02-22T11:53:25;99273.16;;;14.44;57.78
75681;BME280;64294;49.176;16.626;2023-02-22T12:01:20;99272.84;;;15.18;56.20
75681;BME280;64294;49.176;16.626;2023-02-22T12:03:51;99275.88;;;15.05;55.69
75681;BME280;64294;49.176;16.626;2023-02-22T12:06:29;99271.81;;;14.75;55.73
75681;BME280;64294;49.176;16.626;2023-02-22T12:11:50;99273.34;;;14.53;56.69
75681;BME280;64294;49.176;16.626;2023-02-22T12:22:13;99263.97;;;13.18;59.55
75681;BME280;64294;49.176;16.626;2023-02-22T12:25:17;99249.63;;;13.52;59.71
75681;BME280;64294;49.176;16.626;2023-02-22T12:27:58;99255.28;;;13.59;60.08
75681;BME280;64294;49.176;16.626;2023-02-22T12:30:36;99259.50;;;13.30;60.80
75681;BME280;64294;49.176;16.626;2023-02-22T12:33:14;99255.94;;;13.37;60.36
75681;BME280;64294;49.176;16.626;2023-02-22T12:35:47;99246.72;;;13.29;62.11
75681;BME280;64294;49.176;16.626;2023-02-22T12:38:17;99243.16;;;13.36;61.37
75681;BME280;64294;49.176;16.626;2023-02-22T12:41:15;99243.44;;;13.61;59.76
75681;BME280;64294;49.176;16.626;2023-02-22T12:44:21;99236.16;;;12.93;61.80
75681;BME280;64294;49.176;16.626;2023-02-22T12:46:43;99232.41;;;12.98;62.44
75681;BME280;64294;49.176;16.626;2023-02-22T12:51:51;99240.31;;;13.36;60.74
75681;BME280;64294;49.176;16.626;2023-02-22T12:54:41;99229.97;;;12.95;61.70
75681;BME280;64294;49.176;16.626;2023-02-22T12:59:37;99219.59;;;13.26;61.78
75681;BME280;64294;49.176;16.626;2023-02-22T13:02:19;99223.84;;;13.12;61.98
75681;BME280;64294;49.176;16.626;2023-02-22T13:04:45;99220.53;;;12.85;62.50
75681;BME280;64294;49.176;16.626;2023-02-22T13:07:20;99219.41;;;12.88;61.99
75681;BME280;64294;49.176;16.626;2023-02-22T13:10:02;99216.56;;;12.52;62.67
75681;BME280;64294;49.176;16.626;2023-02-22T13:12:43;99222.03;;;12.57;63.15
75681;BME280;64294;49.176;16.626;2023-02-22T13:15:23;99218.56;;;12.43;64.20
75681;BME280;64294;49.176;16.626;2023-02-22T13:18:13;99215.28;;;12.60;63.05
75681;BME280;64294;49.176;16.626;2023-02-22T13:26:04;99216.84;;;12.40;64.18
75681;BME280;64294;49.176;16.626;2023-02-22T13:28:42;99218.34;;;12.41;64.27
75681;BME280;64294;49.176;16.626;2023-02-22T13:36:35;99218.91;;;11.77;65.32
75681;BME280;64294;49.176;16.626;2023-02-22T13:52:16;99208.25;;;11.63;66.13
75681;BME280;64294;49.176;16.626;2023-02-22T13:54:47;99207.75;;;11.51;67.00
75681;BME280;64294;49.176;16.626;2023-02-22T13:57:36;99214.59;;;11.42;67.91
75681;BME280;64294;49.176;16.626;2023-02-22T14:10:59;99209.88;;;11.37;68.79
75681;BME280;64294;49.176;16.626;2023-02-22T14:13:27;99207.63;;;11.57;68.44
75681;BME280;64294;49.176;16.626;2023-02-22T14:18:26;99210.66;;;11.93;67.05
75681;BME280;64294;49.176;16.626;2023-02-22T14:21:05;99205.28;;;11.47;68.45
75681;BME280;64294;49.176;16.626;2023-02-22T14:23:48;99199.16;;;11.36;69.25
75681;BME280;64294;49.176;16.626;2023-02-22T14:26:34;99189.28;;;11.42;69.86
75681;BME280;64294;49.176;16.626;2023-02-22T14:34:08;99188.78;;;11.31;70.55
75681;BME280;64294;49.176;16.626;2023-02-22T14:37:00;99194.56;;;11.12;71.14
75681;BME280;64294;49.176;16.626;2023-02-22T14:44:35;99189.28;;;10.95;72.11
75681;BME280;64294;49.176;16.626;2023-02-22T14:47:06;99200.53;;;11.08;71.72
75681;BME280;64294;49.176;16.626;2023-02-22T14:49:36;99191.38;;;11.29;70.60
75681;BME280;64294;49.176;16.626;2023-02-22T14:52:14;99188.84;;;11.17;71.69
75681;BME280;64294;49.176;16.626;2023-02-22T14:55:04;99192.72;;;11.14;70.90
75681;BME280;64294;49.176;16.626;2023-02-22T14:57:58;99187.53;;;11.18;71.15
75681;BME280;64294;49.176;16.626;2023-02-22T15:00:40;99187.22;;;11.09;71.50
75681;BME280;64294;49.176;16.626;2023-02-22T15:05:51;99188.09;;;11.04;71.62
75681;BME280;64294;49.176;16.626;2023-02-22T15:08:17;99189.28;;;11.08;71.64
75681;BME280;64294;49.176;16.626;2023-02-22T15:10:52;99178.50;;;10.99;70.98